Time;durP1;ratioP1;P1;durP2;ratioP2;P2;SDS_P1;SDS_P2;PMS_P1;PMS_P2;Temp;Humidity;BMP_temperature;BMP_pressure;BME280_temperature;BME280_humidity;BME280_pressure;Samples;Min_cycle;Max_cycle;Signal;HPM_P1;HPM_P2
2022/09/19 00:01:44;;;;;;;1.00;0.60;;;13.50;99.90;;;;;;5032706;28;20946;-73
2022/09/19 00:04:14;;;;;;;2.40;0.60;;;13.50;99.90;;;;;;5032113;28;20383;-73
2022/09/19 00:06:41;;;;;;;1.10;0.70;;;13.50;99.90;;;;;;5028369;28;20483;-73
2022/09/19 00:09:09;;;;;;;1.10;0.60;;;13.50;99.90;;;;;;5022397;28;20893;-74
2022/09/19 00:11:36;;;;;;;0.80;0.57;;;13.40;99.90;;;;;;5030161;28;20505;-74
2022/09/19 00:14:02;;;;;;;1.73;0.60;;;13.40;99.90;;;;;;5026931;28;20469;-74
2022/09/19 00:16:33;;;;;;;1.13;0.53;;;13.40;99.90;;;;;;5030576;28;20781;-74
2022/09/19 00:19:01;;;;;;;1.52;0.80;;;13.40;99.90;;;;;;5028337;28;20461;-73
2022/09/19 00:21:29;;;;;;;1.17;0.60;;;13.30;99.90;;;;;;5028301;28;20406;-74
2022/09/19 00:26:39;;;;;;;0.70;0.50;;;13.30;99.90;;;;;;5023550;28;21078;-73
2022/09/19 00:29:06;;;;;;;0.85;0.57;;;13.30;99.90;;;;;;5031159;28;20450;-74
2022/09/19 00:31:32;;;;;;;0.85;0.60;;;13.30;99.90;;;;;;5022416;28;20403;-74
2022/09/19 00:33:57;;;;;;;2.17;0.77;;;13.20;99.90;;;;;;5030343;28;20411;-73
2022/09/19 00:36:24;;;;;;;0.60;0.60;;;13.30;99.90;;;;;;5030879;28;20384;-74
2022/09/19 00:38:50;;;;;;;0.90;0.40;;;13.30;99.90;;;;;;5030359;28;20478;-74
2022/09/19 00:41:18;;;;;;;1.45;0.70;;;13.30;99.90;;;;;;5029901;28;20411;-73
2022/09/19 00:43:43;;;;;;;0.80;0.40;;;13.30;99.90;;;;;;5029561;28;20812;-74
2022/09/19 00:46:09;;;;;;;0.87;0.60;;;13.30;99.90;;;;;;5029297;28;20480;-73
2022/09/19 00:48:35;;;;;;;1.07;0.60;;;13.30;99.90;;;;;;5031431;28;20489;-73
2022/09/19 00:51:04;;;;;;;1.42;0.60;;;13.30;99.90;;;;;;5031086;28;20773;-73
2022/09/19 00:53:31;;;;;;;0.90;0.70;;;13.30;99.90;;;;;;5027358;28;20438;-73
2022/09/19 00:55:57;;;;;;;0.70;0.60;;;13.30;99.90;;;;;;5028719;28;20391;-74
2022/09/19 00:58:29;;;;;;;1.10;0.60;;;13.20;99.90;;;;;;5031604;28;20387;-73
2022/09/19 01:00:57;;;;;;;0.70;0.60;;;13.20;99.90;;;;;;5030266;28;20456;-74
2022/09/19 01:03:24;;;;;;;1.67;0.45;;;13.30;99.90;;;;;;5030309;28;20402;-74
2022/09/19 01:06:12;;;;;;;0.80;0.70;;;13.20;99.90;;;;;;5031386;28;20467;-74
2022/09/19 01:08:58;;;;;;;0.80;0.68;;;13.20;99.90;;;;;;5022042;28;20411;-74
2022/09/19 01:12:01;;;;;;;1.30;0.80;;;13.20;99.90;;;;;;5030348;28;20407;-74
2022/09/19 01:14:51;;;;;;;0.90;0.80;;;13.20;99.90;;;;;;5030104;28;20426;-73
2022/09/19 01:17:31;;;;;;;1.30;0.60;;;13.30;99.90;;;;;;5029590;28;20439;-73
2022/09/19 01:20:18;;;;;;;1.02;0.70;;;13.20;99.90;;;;;;5028654;28;20430;-74
2022/09/19 01:23:12;;;;;;;1.50;0.85;;;13.30;99.90;;;;;;5029144;28;20406;-73
2022/09/19 01:25:56;;;;;;;2.70;0.70;;;13.20;99.90;;;;;;5022917;28;20395;-73
2022/09/19 01:28:29;;;;;;;1.00;0.63;;;13.10;99.90;;;;;;5025305;28;20407;-73
2022/09/19 01:31:18;;;;;;;1.30;0.70;;;13.10;99.90;;;;;;5029537;28;20494;-73
2022/09/19 01:34:04;;;;;;;3.13;0.80;;;13.10;99.90;;;;;;5022608;28;20406;-73
2022/09/19 01:37:02;;;;;;;1.30;0.80;;;13.10;99.90;;;;;;5029491;28;21061;-74
2022/09/19 01:39:29;;;;;;;0.70;0.55;;;13.00;99.90;;;;;;5030984;28;20412;-73
2022/09/19 01:41:57;;;;;;;0.90;0.52;;;13.00;99.90;;;;;;5030378;28;20403;-73
2022/09/19 01:44:25;;;;;;;0.80;0.50;;;12.90;99.90;;;;;;5029900;28;20769;-72
2022/09/19 01:47:16;;;;;;;1.23;0.60;;;12.90;99.90;;;;;;5028750;28;20410;-72
2022/09/19 01:50:38;;;;;;;1.30;0.60;;;13.00;99.90;;;;;;5023761;28;20395;-73
2022/09/19 01:53:22;;;;;;;1.50;0.50;;;12.90;99.90;;;;;;4989612;28;20480;-73
2022/09/19 01:56:11;;;;;;;0.70;0.50;;;12.90;99.90;;;;;;4997053;28;20421;-73
2022/09/19 01:58:49;;;;;;;0.90;0.77;;;12.90;99.90;;;;;;5017822;28;20506;-73
2022/09/19 02:01:50;;;;;;;0.90;0.57;;;12.90;99.90;;;;;;5021868;28;20400;-73
2022/09/19 02:04:22;;;;;;;0.70;0.60;;;12.90;99.90;;;;;;5026418;28;20435;-73
2022/09/19 02:06:58;;;;;;;1.00;0.60;;;12.80;99.90;;;;;;5030171;28;20379;-74
2022/09/19 02:09:51;;;;;;;1.30;0.70;;;12.80;99.90;;;;;;5028859;28;20410;-73
2022/09/19 02:12:20;;;;;;;1.20;0.60;;;12.80;99.90;;;;;;5030692;28;20824;-73
2022/09/19 02:14:54;;;;;;;0.60;0.50;;;12.80;99.90;;;;;;5030107;28;20407;-73
2022/09/19 02:17:24;;;;;;;1.20;0.60;;;12.80;99.90;;;;;;5030563;28;20430;-73
2022/09/19 02:19:59;;;;;;;0.65;0.50;;;12.70;99.90;;;;;;5031933;28;20387;-73
2022/09/19 02:22:31;;;;;;;0.88;0.60;;;12.80;99.90;;;;;;5030619;28;20461;-73
2022/09/19 02:25:02;;;;;;;1.10;0.60;;;12.80;99.90;;;;;;5028715;28;20494;-72
2022/09/19 02:27:55;;;;;;;0.80;0.50;;;12.70;99.90;;;;;;5026320;28;20411;-73
2022/09/19 02:30:21;;;;;;;1.20;0.70;;;12.70;99.90;;;;;;5028946;28;20409;-73
2022/09/19 02:32:49;;;;;;;2.00;0.60;;;12.70;99.90;;;;;;5024730;28;20494;-73
2022/09/19 02:35:17;;;;;;;0.80;0.80;;;12.70;99.90;;;;;;5026687;28;20398;-73
2022/09/19 02:37:48;;;;;;;0.77;0.70;;;12.70;99.90;;;;;;5024759;28;20411;-73
2022/09/19 02:40:31;;;;;;;0.90;0.60;;;12.70;99.90;;;;;;5028503;28;20730;-73
2022/09/19 02:43:14;;;;;;;1.40;0.50;;;12.80;99.90;;;;;;5029090;28;20402;-73
2022/09/19 02:45:51;;;;;;;1.40;0.70;;;12.70;99.90;;;;;;5021725;28;20402;-73
2022/09/19 02:48:29;;;;;;;1.10;0.70;;;12.70;99.90;;;;;;5027992;28;20395;-73
2022/09/19 02:51:03;;;;;;;1.50;0.70;;;12.70;99.90;;;;;;5028285;28;20414;-73
2022/09/19 02:53:35;;;;;;;1.80;0.90;;;12.70;99.90;;;;;;5026510;28;20403;-72
2022/09/19 02:56:03;;;;;;;1.02;0.82;;;12.70;99.90;;;;;;5029708;28;20383;-72
2022/09/19 02:58:38;;;;;;;1.40;1.10;;;12.70;99.90;;;;;;5018988;28;20456;-72
2022/09/19 03:01:12;;;;;;;1.23;0.80;;;12.70;99.90;;;;;;5021215;28;20407;-73
2022/09/19 03:06:35;;;;;;;1.60;0.60;;;12.60;99.90;;;;;;5028007;28;20469;-72
2022/09/19 03:09:04;;;;;;;1.60;0.70;;;12.60;99.90;;;;;;5022075;28;20810;-72
2022/09/19 03:11:33;;;;;;;1.30;0.90;;;12.60;99.90;;;;;;5019421;28;20773;-72
2022/09/19 03:14:00;;;;;;;1.60;0.70;;;12.60;99.90;;;;;;5028742;28;20410;-72
2022/09/19 03:16:31;;;;;;;0.80;0.50;;;12.60;99.90;;;;;;5030434;28;20611;-72
2022/09/19 03:18:57;;;;;;;1.65;0.70;;;12.50;99.90;;;;;;5032228;28;20490;-73
2022/09/19 03:21:25;;;;;;;2.20;0.80;;;12.50;99.90;;;;;;5031823;28;20379;-72
2022/09/19 03:23:54;;;;;;;1.90;0.80;;;12.50;99.90;;;;;;5031541;28;20793;-72
2022/09/19 03:26:22;;;;;;;1.60;0.80;;;12.40;99.90;;;;;;5023965;28;20420;-72
2022/09/19 03:28:48;;;;;;;1.27;0.80;;;12.30;99.90;;;;;;5032842;28;20776;-72
2022/09/19 03:31:14;;;;;;;1.23;0.70;;;12.30;99.90;;;;;;5030832;28;20410;-73
2022/09/19 03:33:39;;;;;;;2.70;0.80;;;12.30;99.90;;;;;;5030893;28;20754;-72
2022/09/19 03:36:08;;;;;;;1.40;0.90;;;12.30;99.90;;;;;;5031878;28;20461;-73
2022/09/19 03:38:36;;;;;;;0.60;0.60;;;12.30;99.90;;;;;;5024064;28;20393;-73
2022/09/19 03:41:01;;;;;;;1.50;0.60;;;12.30;99.90;;;;;;5032082;28;20410;-73
2022/09/19 03:43:29;;;;;;;2.70;0.70;;;12.20;99.90;;;;;;5031249;28;20827;-73
2022/09/19 03:45:55;;;;;;;0.90;0.70;;;12.30;99.90;;;;;;5027343;28;20407;-73
2022/09/19 03:48:21;;;;;;;0.70;0.53;;;12.30;99.90;;;;;;5047598;28;20524;-73
2022/09/19 03:50:47;;;;;;;1.27;0.70;;;12.40;99.90;;;;;;5031756;28;20398;-73
2022/09/19 03:53:13;;;;;;;1.10;0.60;;;12.30;99.90;;;;;;5032053;28;20417;-73
2022/09/19 03:55:41;;;;;;;1.87;0.60;;;12.20;99.90;;;;;;5024683;28;20403;-73
2022/09/19 03:58:07;;;;;;;0.50;0.40;;;12.10;99.90;;;;;;5030919;28;20788;-73
2022/09/19 04:00:33;;;;;;;1.48;0.70;;;12.00;99.90;;;;;;5024022;28;20414;-73
2022/09/19 04:02:58;;;;;;;1.07;0.60;;;11.90;99.90;;;;;;5029428;28;20407;-73
2022/09/19 04:05:24;;;;;;;1.50;0.50;;;11.80;99.90;;;;;;5031577;28;20418;-72
2022/09/19 04:07:50;;;;;;;2.07;0.60;;;11.80;99.90;;;;;;5029082;28;20780;-73
2022/09/19 04:10:16;;;;;;;1.50;0.52;;;11.70;99.90;;;;;;5027913;28;20412;-73
2022/09/19 04:12:41;;;;;;;1.20;0.63;;;11.80;99.90;;;;;;5024867;28;21021;-73
2022/09/19 04:15:07;;;;;;;0.90;0.50;;;11.80;99.90;;;;;;5031314;28;20872;-73
2022/09/19 04:17:33;;;;;;;0.70;0.43;;;11.90;99.90;;;;;;5030984;28;20395;-73
2022/09/19 04:19:58;;;;;;;0.60;0.50;;;11.90;99.90;;;;;;5031019;28;20912;-73
2022/09/19 04:22:24;;;;;;;1.10;0.50;;;11.70;99.90;;;;;;5023382;28;20775;-73
2022/09/19 04:24:51;;;;;;;1.05;0.75;;;11.70;99.90;;;;;;5030127;28;20407;-73
2022/09/19 04:27:17;;;;;;;0.90;0.60;;;11.70;99.90;;;;;;5023994;28;20403;-72
2022/09/19 04:29:43;;;;;;;0.70;0.52;;;11.50;99.90;;;;;;5030606;28;20502;-73
2022/09/19 04:32:09;;;;;;;2.00;0.70;;;11.50;99.90;;;;;;5032872;28;20498;-73
2022/09/19 04:34:35;;;;;;;1.40;0.60;;;11.50;99.90;;;;;;5025130;28;20867;-72
2022/09/19 04:37:06;;;;;;;0.60;0.50;;;11.50;99.90;;;;;;5027908;28;20411;-73
2022/09/19 04:39:32;;;;;;;0.70;0.50;;;11.40;99.90;;;;;;5018547;28;20816;-73
2022/09/19 04:41:59;;;;;;;1.00;0.50;;;11.30;99.90;;;;;;5023857;28;20459;-73
2022/09/19 04:44:29;;;;;;;2.30;0.70;;;11.20;99.90;;;;;;5023105;28;20403;-73
2022/09/19 04:46:55;;;;;;;1.08;0.80;;;11.10;99.90;;;;;;5030967;28;20395;-73
2022/09/19 04:49:21;;;;;;;1.73;1.10;;;10.80;99.90;;;;;;5031382;28;20853;-73
2022/09/19 04:51:46;;;;;;;3.00;1.30;;;10.70;99.90;;;;;;5032183;28;20410;-73
2022/09/19 04:54:14;;;;;;;1.50;1.40;;;10.70;99.90;;;;;;5022780;28;20771;-73
2022/09/19 04:56:43;;;;;;;1.65;1.10;;;10.60;99.90;;;;;;5031814;28;20453;-73
2022/09/19 04:59:09;;;;;;;3.60;1.40;;;10.40;99.90;;;;;;5022984;28;20409;-73
2022/09/19 05:01:35;;;;;;;1.10;1.00;;;10.30;99.90;;;;;;5028436;28;20414;-73
2022/09/19 05:04:02;;;;;;;1.50;0.80;;;10.10;99.90;;;;;;5026115;28;20404;-73
2022/09/19 05:06:28;;;;;;;1.33;0.80;;;10.10;99.90;;;;;;5026695;28;20457;-73
2022/09/19 05:08:54;;;;;;;2.70;0.60;;;10.10;99.90;;;;;;5030501;28;20415;-73
2022/09/19 05:11:21;;;;;;;2.72;0.80;;;10.00;99.90;;;;;;5024178;28;20425;-73
2022/09/19 05:13:48;;;;;;;1.13;0.60;;;10.00;99.90;;;;;;5019284;28;20459;-73
2022/09/19 05:16:14;;;;;;;1.83;0.90;;;10.00;99.90;;;;;;5025494;28;20968;-73
2022/09/19 05:18:39;;;;;;;1.42;0.82;;;10.00;99.90;;;;;;5024910;28;20432;-73
2022/09/19 05:21:11;;;;;;;1.40;0.70;;;10.00;99.90;;;;;;5027634;28;20410;-73
2022/09/19 05:23:37;;;;;;;1.30;1.10;;;9.90;99.90;;;;;;5019240;28;20422;-73
2022/09/19 05:26:16;;;;;;;0.88;0.77;;;9.90;99.90;;;;;;5030102;28;20444;-73
2022/09/19 05:28:44;;;;;;;2.40;0.60;;;9.80;99.90;;;;;;5029273;28;20393;-73
2022/09/19 05:31:10;;;;;;;0.93;0.60;;;9.70;99.90;;;;;;5028223;28;20417;-73
2022/09/19 05:33:36;;;;;;;2.20;0.70;;;9.70;99.90;;;;;;5027372;28;20720;-73
2022/09/19 05:36:03;;;;;;;6.10;3.30;;;9.60;99.90;;;;;;5026361;28;20936;-74
2022/09/19 05:38:30;;;;;;;3.00;0.90;;;9.60;99.90;;;;;;5026811;28;20428;-73
2022/09/19 05:40:57;;;;;;;1.60;0.70;;;9.60;99.90;;;;;;5026796;28;20398;-73
2022/09/19 05:43:24;;;;;;;2.47;0.80;;;9.60;99.90;;;;;;5028133;28;20913;-73
2022/09/19 05:45:51;;;;;;;2.22;0.75;;;9.50;99.90;;;;;;5029218;28;20497;-73
2022/09/19 05:48:16;;;;;;;1.80;1.00;;;9.50;99.90;;;;;;5029120;28;20465;-73
2022/09/19 05:50:44;;;;;;;1.87;0.97;;;9.50;99.90;;;;;;5029813;28;20446;-73
2022/09/19 05:55:57;;;;;;;1.40;0.85;;;9.50;99.90;;;;;;5027281;28;20749;-73
2022/09/19 05:58:24;;;;;;;2.58;1.00;;;9.50;99.90;;;;;;5048210;22;20431;-72
2022/09/19 06:00:50;;;;;;;1.00;0.65;;;9.40;99.90;;;;;;5030074;28;20398;-73
2022/09/19 06:03:16;;;;;;;1.17;0.70;;;9.40;99.90;;;;;;5029146;28;20446;-73
2022/09/19 06:05:45;;;;;;;2.92;0.80;;;9.40;99.90;;;;;;5026736;28;20489;-73
2022/09/19 06:08:11;;;;;;;2.30;1.20;;;9.30;99.90;;;;;;5028463;28;20399;-73
2022/09/19 06:10:40;;;;;;;2.53;1.60;;;9.40;99.90;;;;;;5028256;28;20422;-73
2022/09/19 06:13:08;;;;;;;2.00;1.60;;;9.50;99.90;;;;;;5027456;28;20410;-73
2022/09/19 06:15:34;;;;;;;4.43;1.77;;;9.60;99.90;;;;;;5027641;28;20447;-73
2022/09/19 06:17:59;;;;;;;3.30;1.50;;;9.60;99.90;;;;;;5029047;28;20441;-73
2022/09/19 06:20:26;;;;;;;2.25;1.60;;;9.60;99.90;;;;;;5030648;28;20823;-73
2022/09/19 06:23:01;;;;;;;3.30;1.42;;;9.60;99.90;;;;;;5029523;28;20383;-73
2022/09/19 06:25:28;;;;;;;1.90;1.00;;;9.70;99.90;;;;;;5027149;28;20399;-73
2022/09/19 06:27:59;;;;;;;1.60;1.00;;;9.70;99.90;;;;;;5028068;28;20411;-73
2022/09/19 06:30:26;;;;;;;3.30;1.00;;;9.70;99.90;;;;;;5028497;28;20414;-73
2022/09/19 06:32:52;;;;;;;1.60;0.70;;;9.80;99.90;;;;;;5016705;28;20415;-73
2022/09/19 06:35:24;;;;;;;1.10;0.90;;;9.90;99.90;;;;;;5026395;28;20411;-73
2022/09/19 06:37:49;;;;;;;1.15;0.80;;;9.90;99.90;;;;;;5034033;28;20857;-73
2022/09/19 06:40:22;;;;;;;2.13;1.05;;;9.90;99.90;;;;;;5034961;28;20421;-73
2022/09/19 06:42:48;;;;;;;1.80;1.00;;;10.00;99.90;;;;;;5009686;28;20396;-73
2022/09/19 06:45:14;;;;;;;1.95;0.90;;;10.00;99.90;;;;;;5012304;28;20385;-73
2022/09/19 06:47:39;;;;;;;1.27;0.70;;;10.10;99.90;;;;;;5017106;28;20898;-73
2022/09/19 06:50:05;;;;;;;2.88;1.10;;;10.10;99.90;;;;;;5007912;28;20452;-72
2022/09/19 06:52:30;;;;;;;1.73;1.10;;;10.20;99.90;;;;;;5024114;28;20461;-73
2022/09/19 06:54:58;;;;;;;2.00;0.83;;;10.20;99.90;;;;;;5023872;28;20397;-73
2022/09/19 06:57:23;;;;;;;2.35;1.00;;;10.30;99.90;;;;;;5024444;28;20808;-73
2022/09/19 06:59:49;;;;;;;1.88;0.85;;;10.40;99.90;;;;;;5029285;28;20403;-73
2022/09/19 07:02:15;;;;;;;1.20;0.88;;;10.50;99.90;;;;;;5022216;28;20418;-73
2022/09/19 07:04:40;;;;;;;1.85;0.90;;;10.50;99.90;;;;;;5024999;28;20402;-73
2022/09/19 07:07:06;;;;;;;2.03;0.80;;;10.50;99.90;;;;;;5028663;28;20444;-73
2022/09/19 07:09:32;;;;;;;1.77;0.80;;;10.60;99.90;;;;;;5026975;28;20851;-73
2022/09/19 07:11:57;;;;;;;2.77;1.20;;;10.70;99.90;;;;;;5015569;28;20771;-73
2022/09/19 07:14:24;;;;;;;2.10;0.90;;;10.70;99.90;;;;;;5024579;28;20418;-73
2022/09/19 07:16:50;;;;;;;1.48;1.08;;;10.90;99.90;;;;;;5025257;28;20399;-73
2022/09/19 07:19:15;;;;;;;8.32;4.70;;;10.90;99.90;;;;;;5027547;28;20394;-74
2022/09/19 07:21:41;;;;;;;5.00;2.13;;;11.00;99.90;;;;;;5024955;28;20414;-74
2022/09/19 07:24:07;;;;;;;2.30;1.10;;;11.00;99.90;;;;;;5018147;28;20424;-73
2022/09/19 07:26:33;;;;;;;1.40;0.90;;;11.10;99.90;;;;;;5023448;28;20396;-73
2022/09/19 07:28:59;;;;;;;2.80;0.80;;;11.20;99.90;;;;;;5021807;28;20403;-73
2022/09/19 07:31:26;;;;;;;2.97;1.20;;;11.30;99.90;;;;;;5027242;28;20486;-73
2022/09/19 07:33:53;;;;;;;1.90;0.90;;;11.30;99.90;;;;;;5022295;28;20409;-73
2022/09/19 07:36:21;;;;;;;3.20;0.85;;;11.30;99.90;;;;;;5027953;28;20750;-73
2022/09/19 07:38:48;;;;;;;4.22;1.10;;;11.40;99.90;;;;;;5018532;28;20924;-73
2022/09/19 07:41:14;;;;;;;3.00;1.13;;;11.40;99.90;;;;;;5027511;28;20417;-73
2022/09/19 07:43:40;;;;;;;1.00;0.63;;;11.50;99.90;;;;;;5024646;28;20470;-72
2022/09/19 07:46:06;;;;;;;3.53;1.30;;;11.50;99.90;;;;;;5019393;28;20857;-72
2022/09/19 07:48:31;;;;;;;3.13;1.20;;;11.40;99.90;;;;;;5021683;28;20410;-73
2022/09/19 07:50:57;;;;;;;1.80;0.70;;;11.40;99.90;;;;;;5017243;28;20434;-73
2022/09/19 07:53:23;;;;;;;1.10;0.70;;;11.40;99.90;;;;;;5025048;28;20999;-73
2022/09/19 07:55:54;;;;;;;3.63;1.17;;;11.40;99.90;;;;;;5022523;28;20420;-73
2022/09/19 07:58:22;;;;;;;3.80;1.00;;;11.30;99.90;;;;;;5028130;28;20446;-72
2022/09/19 08:00:49;;;;;;;4.63;1.00;;;11.20;99.90;;;;;;5025488;28;20486;-73
2022/09/19 08:03:17;;;;;;;4.78;0.93;;;11.20;99.90;;;;;;5020149;28;20419;-73
2022/09/19 08:05:49;;;;;;;1.63;0.90;;;11.20;99.90;;;;;;5031849;28;20414;-72
2022/09/19 08:08:16;;;;;;;2.38;0.80;;;11.20;99.90;;;;;;5024149;28;20415;-72
2022/09/19 08:10:43;;;;;;;1.98;1.20;;;11.30;99.90;;;;;;5031910;28;20414;-72
2022/09/19 08:13:10;;;;;;;3.20;0.90;;;11.50;99.90;;;;;;5031549;28;20861;-72
2022/09/19 08:15:37;;;;;;;2.30;1.10;;;11.50;99.90;;;;;;5027876;28;21105;-73
2022/09/19 08:18:08;;;;;;;2.40;0.90;;;11.60;99.90;;;;;;5032001;28;20478;-72
2022/09/19 08:20:36;;;;;;;3.90;0.98;;;11.60;99.90;;;;;;5026838;28;20399;-73
2022/09/19 08:23:05;;;;;;;3.65;0.93;;;11.60;99.90;;;;;;5028243;28;20414;-72
2022/09/19 08:25:33;;;;;;;3.35;0.90;;;11.70;99.90;;;;;;5025221;28;20387;-70
2022/09/19 08:28:03;;;;;;;4.03;1.10;;;11.80;99.90;;;;;;5029653;28;20473;-72
2022/09/19 08:30:29;;;;;;;4.50;1.10;;;11.80;99.90;;;;;;5019930;28;20806;-72
2022/09/19 08:32:56;;;;;;;2.85;1.10;;;11.90;99.90;;;;;;5029547;28;20726;-72
2022/09/19 08:35:22;;;;;;;5.05;1.10;;;12.00;99.90;;;;;;5024069;28;20446;-70
2022/09/19 08:37:58;;;;;;;1.92;1.00;;;11.90;99.90;;;;;;5025852;28;20403;-73
2022/09/19 08:40:43;;;;;;;5.55;1.30;;;12.00;99.90;;;;;;5027261;28;20441;-73
2022/09/19 08:43:40;;;;;;;3.53;1.20;;;12.10;99.90;;;;;;5024861;28;20390;-73
2022/09/19 08:46:37;;;;;;;6.80;0.95;;;12.20;99.90;;;;;;5021543;28;20485;-73
2022/09/19 08:49:20;;;;;;;4.63;1.10;;;12.30;99.90;;;;;;5025526;28;20406;-73
2022/09/19 08:51:59;;;;;;;3.40;0.95;;;12.30;99.90;;;;;;5021388;28;20417;-73
2022/09/19 08:54:28;;;;;;;4.82;1.50;;;12.40;99.90;;;;;;5023596;28;20476;-74
2022/09/19 08:56:54;;;;;;;3.75;1.15;;;12.40;99.90;;;;;;5027854;28;20399;-73
2022/09/19 08:59:23;;;;;;;4.55;1.10;;;12.40;99.90;;;;;;5031424;28;20430;-73
2022/09/19 09:01:53;;;;;;;3.38;1.10;;;12.50;99.90;;;;;;5032015;28;20749;-73
2022/09/19 09:04:31;;;;;;;6.13;1.52;;;12.50;99.90;;;;;;5031733;28;20394;-73
2022/09/19 09:07:34;;;;;;;4.82;1.20;;;12.70;99.90;;;;;;5030469;28;20390;-73
2022/09/19 09:10:19;;;;;;;4.40;1.40;;;12.70;99.90;;;;;;5031835;28;20401;-73
2022/09/19 09:13:15;;;;;;;4.15;1.10;;;12.90;99.90;;;;;;5030964;28;20407;-73
2022/09/19 09:15:58;;;;;;;4.25;1.30;;;13.00;99.90;;;;;;5012210;28;20471;-72
2022/09/19 09:18:47;;;;;;;3.40;1.42;;;12.90;99.90;;;;;;5030491;28;20754;-73
2022/09/19 09:21:34;;;;;;;3.97;1.38;;;13.00;99.90;;;;;;5032057;28;20757;-73
2022/09/19 09:24:16;;;;;;;3.83;0.90;;;13.00;99.90;;;;;;5018478;28;20400;-72
2022/09/19 09:26:44;;;;;;;4.18;1.30;;;13.00;99.90;;;;;;5010601;28;20455;-72
2022/09/19 09:29:17;;;;;;;3.58;1.17;;;13.00;99.90;;;;;;5010879;28;20393;-73
2022/09/19 09:31:54;;;;;;;3.45;1.40;;;13.10;99.90;;;;;;5011660;28;20510;-73
2022/09/19 09:34:36;;;;;;;3.92;1.20;;;13.10;99.90;;;;;;5011472;28;20384;-72
2022/09/19 09:37:13;;;;;;;6.03;2.10;;;13.20;99.90;;;;;;5011564;28;20819;-73
2022/09/19 09:39:59;;;;;;;2.13;0.90;;;13.20;99.90;;;;;;5011607;28;20796;-73
2022/09/19 09:42:51;;;;;;;1.90;1.10;;;13.20;99.90;;;;;;5011108;28;20381;-73
2022/09/19 09:45:28;;;;;;;3.67;1.17;;;13.20;99.90;;;;;;5005857;28;20396;-73
2022/09/19 09:48:15;;;;;;;3.30;1.20;;;13.30;99.90;;;;;;5011535;28;20393;-73
2022/09/19 09:51:18;;;;;;;3.58;1.10;;;13.50;99.90;;;;;;5011170;28;20901;-73
2022/09/19 09:53:56;;;;;;;4.25;1.20;;;13.40;99.90;;;;;;5009796;28;20891;-73
2022/09/19 09:56:43;;;;;;;2.67;1.07;;;13.40;99.90;;;;;;5009854;28;20397;-73
2022/09/19 10:05:44;;;;;;;2.60;1.20;;;14.10;99.90;;;;;;5011534;28;20379;-73
2022/09/19 10:08:27;;;;;;;2.08;0.80;;;14.20;99.90;;;;;;5011083;28;20384;-73
2022/09/19 10:11:15;;;;;;;4.30;1.10;;;13.90;95.80;;;;;;5011146;28;20771;-73
2022/09/19 10:13:48;;;;;;;5.75;1.20;;;14.00;94.90;;;;;;5011138;28;20391;-73
2022/09/19 10:16:17;;;;;;;4.93;1.10;;;14.10;95.10;;;;;;5009920;28;20412;-73
2022/09/19 10:18:54;;;;;;;6.03;1.30;;;14.30;97.40;;;;;;5011034;28;20454;-73
2022/09/19 10:21:20;;;;;;;5.38;1.10;;;14.20;98.30;;;;;;5009784;28;20410;-73
2022/09/19 10:23:46;;;;;;;4.10;1.13;;;14.30;99.90;;;;;;5009420;28;20483;-73
2022/09/19 10:26:19;;;;;;;4.97;1.30;;;14.30;97.50;;;;;;5011067;28;21075;-73
2022/09/19 10:28:59;;;;;;;3.65;0.95;;;14.40;99.90;;;;;;5023574;28;20492;-74
2022/09/19 10:31:34;;;;;;;3.37;1.00;;;14.50;99.10;;;;;;5024216;28;20914;-73
2022/09/19 10:34:04;;;;;;;2.58;1.00;;;14.40;99.90;;;;;;5022715;28;20403;-73
2022/09/19 10:36:33;;;;;;;1.95;0.90;;;14.70;98.40;;;;;;5015869;28;20411;-73
2022/09/19 10:39:07;;;;;;;3.07;1.20;;;15.00;97.80;;;;;;5021390;28;20447;-73
2022/09/19 10:41:37;;;;;;;2.85;1.10;;;14.80;93.50;;;;;;5026320;28;20383;-73
2022/09/19 10:44:09;;;;;;;3.72;1.30;;;14.40;95.50;;;;;;5028714;28;20383;-73
2022/09/19 10:46:43;;;;;;;2.58;0.85;;;14.30;99.60;;;;;;5022762;28;20402;-73
2022/09/19 10:49:19;;;;;;;1.20;0.60;;;14.40;96.70;;;;;;5018782;28;20393;-73
2022/09/19 10:51:48;;;;;;;1.83;0.90;;;14.60;96.20;;;;;;5016923;28;20475;-73
2022/09/19 10:54:37;;;;;;;2.60;0.80;;;14.70;95.20;;;;;;5020534;28;20763;-73
2022/09/19 10:57:04;;;;;;;3.45;1.20;;;14.80;95.00;;;;;;5017047;28;20403;-73
2022/09/19 10:59:38;;;;;;;3.20;1.10;;;15.10;93.30;;;;;;5017284;28;20481;-73
2022/09/19 11:02:10;;;;;;;2.00;1.10;;;15.40;95.80;;;;;;5022515;28;20442;-73
2022/09/19 11:04:37;;;;;;;1.98;1.08;;;15.50;91.80;;;;;;5017927;28;20390;-74
2022/09/19 11:07:16;;;;;;;2.13;0.70;;;15.60;93.60;;;;;;5018423;28;20401;-74
2022/09/19 11:09:44;;;;;;;3.05;1.00;;;15.60;95.00;;;;;;5018067;28;20403;-73
2022/09/19 11:12:13;;;;;;;3.53;0.70;;;15.90;93.80;;;;;;5015323;28;20433;-73
2022/09/19 11:14:44;;;;;;;1.17;0.80;;;16.10;91.60;;;;;;5016478;28;20461;-74
2022/09/19 11:17:33;;;;;;;3.10;1.30;;;16.40;89.10;;;;;;5016683;28;20404;-74
2022/09/19 11:20:30;;;;;;;1.55;0.80;;;16.40;91.00;;;;;;5023095;28;20926;-74
2022/09/19 11:23:14;;;;;;;1.52;0.70;;;16.40;87.10;;;;;;5016940;28;20407;-74
2022/09/19 11:25:44;;;;;;;3.97;0.90;;;17.40;85.10;;;;;;5017578;28;20889;-74
2022/09/19 11:28:32;;;;;;;1.55;0.77;;;18.40;88.90;;;;;;5022134;28;20411;-75
2022/09/19 11:31:19;;;;;;;1.50;0.60;;;18.80;81.90;;;;;;5019180;28;20415;-75
2022/09/19 11:33:55;;;;;;;0.73;0.55;;;19.30;79.70;;;;;;5018039;28;20405;-74
2022/09/19 11:36:39;;;;;;;1.25;0.70;;;20.20;64.50;;;;;;5019224;28;20402;-74
2022/09/19 11:39:14;;;;;;;1.60;0.60;;;20.20;63.30;;;;;;5022657;28;20393;-74
2022/09/19 11:41:57;;;;;;;1.50;0.60;;;20.30;64.30;;;;;;5022287;28;20463;-74
2022/09/19 11:44:31;;;;;;;1.58;0.70;;;19.30;65.30;;;;;;5021368;28;20399;-74
2022/09/19 11:47:16;;;;;;;2.00;0.80;;;18.70;66.80;;;;;;5022631;28;20395;-74
2022/09/19 11:50:20;;;;;;;1.83;0.80;;;19.00;71.60;;;;;;5030427;28;20391;-73
2022/09/19 11:53:29;;;;;;;1.30;0.70;;;18.70;66.00;;;;;;5021393;28;20399;-75
2022/09/19 11:56:06;;;;;;;1.13;0.60;;;19.10;73.00;;;;;;5022420;28;20435;-74
2022/09/19 11:58:58;;;;;;;1.15;0.60;;;19.60;61.20;;;;;;5045431;22;20410;-71
2022/09/19 12:01:40;;;;;;;1.08;0.60;;;19.40;58.40;;;;;;5028553;28;20411;-72
2022/09/19 12:04:28;;;;;;;1.58;0.60;;;18.80;59.60;;;;;;5029916;28;20557;-74
2022/09/19 12:06:59;;;;;;;2.10;0.60;;;18.90;60.00;;;;;;5030033;28;20379;-71
2022/09/19 12:09:45;;;;;;;1.40;0.50;;;18.50;60.50;;;;;;5026162;28;20898;-73
2022/09/19 12:12:16;;;;;;;1.25;0.70;;;18.30;61.20;;;;;;5023755;28;20421;-73
2022/09/19 12:14:57;;;;;;;1.60;0.40;;;17.90;62.70;;;;;;5025126;28;20376;-73
2022/09/19 12:17:42;;;;;;;1.20;0.50;;;17.80;66.70;;;;;;5027358;28;20392;-72
2022/09/19 12:20:17;;;;;;;1.48;0.50;;;17.70;66.70;;;;;;5024307;28;20391;-71
2022/09/19 12:24:52;;;;;;;2.30;0.60;;;18.10;69.30;;;;;;5021937;28;20434;-73
2022/09/19 12:25:45;;;;;;;1.15;0.50;;;17.80;73.30;;;;;;5028473;28;20401;-73
2022/09/19 12:28:15;;;;;;;2.72;0.70;;;17.90;65.70;;;;;;5023695;28;20399;-73
2022/09/19 12:30:45;;;;;;;1.30;0.50;;;17.80;67.10;;;;;;5006708;28;20397;-74
2022/09/19 12:33:16;;;;;;;2.35;0.70;;;18.00;68.90;;;;;;5021563;28;20551;-74
2022/09/19 12:35:47;;;;;;;1.50;0.50;;;18.10;72.10;;;;;;5024275;28;20883;-71
2022/09/19 12:38:40;;;;;;;1.75;0.60;;;18.20;67.20;;;;;;5026521;28;20840;-73
2022/09/19 12:41:18;;;;;;;2.80;0.50;;;18.10;71.70;;;;;;5024576;28;20408;-71
2022/09/19 12:44:02;;;;;;;2.13;0.40;;;17.50;66.60;;;;;;5002608;28;20978;-73
2022/09/19 12:46:50;;;;;;;2.40;0.70;;;17.70;69.00;;;;;;5013480;28;20494;-74
2022/09/19 12:49:34;;;;;;;1.73;0.80;;;18.40;72.10;;;;;;5020039;28;20399;-73
2022/09/19 12:52:12;;;;;;;0.77;0.50;;;18.70;72.60;;;;;;5018148;28;20915;-74
2022/09/19 12:54:50;;;;;;;1.10;0.50;;;18.50;69.10;;;;;;5020303;28;20532;-74
2022/09/19 12:57:25;;;;;;;2.17;0.60;;;18.70;73.20;;;;;;5024496;28;20403;-73
2022/09/19 12:59:54;;;;;;;2.72;0.70;;;18.30;64.40;;;;;;5030948;28;20416;-73
2022/09/19 13:02:34;;;;;;;1.55;0.52;;;18.30;68.00;;;;;;5031282;28;20425;-74
2022/09/19 13:05:22;;;;;;;2.75;0.70;;;18.20;71.10;;;;;;5007125;28;20441;-75
2022/09/19 13:07:56;;;;;;;1.20;0.70;;;18.60;65.50;;;;;;5026611;28;20881;-73
2022/09/19 13:10:37;;;;;;;1.80;0.60;;;18.30;65.90;;;;;;5032428;28;20423;-74
2022/09/19 13:13:12;;;;;;;2.50;1.20;;;18.40;76.00;;;;;;5015514;28;20494;-73
2022/09/19 13:15:52;;;;;;;1.80;0.60;;;18.00;66.80;;;;;;5012067;28;20373;-73
2022/09/19 13:23:57;;;;;;;1.40;0.80;;;18.10;66.50;;;;;;5016993;28;20389;-73
2022/09/19 13:26:32;;;;;;;3.15;0.80;;;18.30;66.50;;;;;;5031477;28;20766;-74
2022/09/19 13:28:59;;;;;;;1.20;0.70;;;18.10;69.10;;;;;;5031548;28;20387;-73
2022/09/19 13:31:32;;;;;;;1.13;0.40;;;17.70;66.50;;;;;;5014022;28;20894;-74
2022/09/19 13:33:58;;;;;;;2.42;0.60;;;18.20;66.20;;;;;;5031300;28;20733;-74
2022/09/19 13:36:23;;;;;;;2.00;0.57;;;18.80;72.20;;;;;;5031503;28;20395;-73
2022/09/19 13:38:58;;;;;;;1.60;0.60;;;18.00;66.80;;;;;;5031119;28;20393;-72